createdAt,value
2023-04-18T00:02:00.357Z,93.30
2023-04-18T00:05:22.730Z,93.20
2023-04-18T00:08:45.058Z,93.00
2023-04-18T00:12:07.875Z,93.30
2023-04-18T00:15:30.417Z,93.00
2023-04-18T00:18:53.654Z,93.20
2023-04-18T00:22:17.391Z,93.10
2023-04-18T00:25:40.681Z,92.90
2023-04-18T00:29:03.640Z,92.40
2023-04-18T00:32:25.914Z,92.70
2023-04-18T00:35:48.264Z,92.30
2023-04-18T00:39:10.748Z,92.10
2023-04-18T00:42:33.637Z,92.00
2023-04-18T00:45:57.189Z,91.60
2023-04-18T00:49:21.122Z,91.60
2023-04-18T00:52:44.193Z,91.30
2023-04-18T00:56:07.561Z,91.10
2023-04-18T00:59:30.073Z,90.80
2023-04-18T01:02:54.100Z,90.70
2023-04-18T01:06:16.653Z,90.60
2023-04-18T01:09:39.663Z,90.90
2023-04-18T01:13:17.013Z,90.50
2023-04-18T01:16:40.097Z,90.40
2023-04-18T01:20:05.523Z,90.40
2023-04-18T01:23:28.948Z,90.30
2023-04-18T01:26:51.185Z,90.60
2023-04-18T01:30:13.689Z,90.20
2023-04-18T01:33:35.920Z,90.20
2023-04-18T01:36:59.135Z,90.10
2023-04-18T01:40:21.915Z,90.20
2023-04-18T01:43:44.220Z,90.10
2023-04-18T01:47:06.470Z,90.00
2023-04-18T01:50:28.821Z,90.00
2023-04-18T01:53:51.131Z,90.00
2023-04-18T01:57:13.442Z,89.70
2023-04-18T02:00:38.466Z,89.70
2023-04-18T02:04:01.576Z,89.70
2023-04-18T02:07:23.910Z,89.50
2023-04-18T02:10:46.468Z,89.40
2023-04-18T02:14:08.701Z,89.30
2023-04-18T02:17:30.982Z,89.20
2023-04-18T02:20:53.458Z,89.10
2023-04-18T02:24:17.865Z,89.10
2023-04-18T02:27:40.334Z,89.00
2023-04-18T02:31:02.611Z,88.90
2023-04-18T02:34:24.980Z,88.70
2023-04-18T02:37:47.287Z,88.70
2023-04-18T02:41:14.944Z,88.60
2023-04-18T02:44:37.201Z,88.40
2023-04-18T02:47:59.573Z,88.30
2023-04-18T02:51:21.985Z,88.20
2023-04-18T02:54:44.591Z,88.20
2023-04-18T02:58:12.122Z,88.00
2023-04-18T03:02:09.415Z,88.00
2023-04-18T03:05:35.664Z,87.90
2023-04-18T03:09:00.225Z,87.70
2023-04-18T03:12:23.317Z,87.60
2023-04-18T03:15:47.186Z,87.60
2023-04-18T03:19:10.505Z,87.40
2023-04-18T03:22:33.204Z,87.40
2023-04-18T03:25:55.592Z,87.20
2023-04-18T03:29:18.338Z,87.20
2023-04-18T03:32:42.403Z,87.00
2023-04-18T03:36:06.116Z,86.90
2023-04-18T03:39:28.528Z,86.80
2023-04-18T03:42:51.592Z,86.70
2023-04-18T03:46:15.256Z,86.60
2023-04-18T03:49:39.027Z,86.60
2023-04-18T03:53:01.475Z,86.40
2023-04-18T03:56:27.891Z,86.50
2023-04-18T03:59:51.324Z,86.50
2023-04-18T04:03:14.021Z,86.50
2023-04-18T04:06:37.641Z,86.30
2023-04-18T04:10:00.242Z,86.20
2023-04-18T04:13:22.710Z,86.10
2023-04-18T04:16:45.945Z,86.10
2023-04-18T04:20:11.968Z,86.00
2023-04-18T04:23:34.676Z,85.90
2023-04-18T04:26:58.873Z,85.80
2023-04-18T04:30:22.269Z,85.70
2023-04-18T04:33:44.981Z,85.60
2023-04-18T04:37:18.627Z,85.50
2023-04-18T04:40:58.221Z,85.40
2023-04-18T04:44:21.982Z,85.40
2023-04-18T04:47:44.457Z,85.30
2023-04-18T04:51:06.671Z,85.20
2023-04-18T04:54:29.134Z,86.00
2023-04-18T04:57:51.397Z,85.10
2023-04-18T05:01:31.507Z,85.00
2023-04-18T05:04:54.336Z,85.00
2023-04-18T05:08:16.554Z,85.00
2023-04-18T05:11:38.873Z,84.80
2023-04-18T05:15:01.510Z,84.80
2023-04-18T05:18:23.742Z,84.70
2023-04-18T05:21:46.034Z,85.00
2023-04-18T05:25:08.581Z,84.70
2023-04-18T05:28:30.921Z,84.80
2023-04-18T05:31:53.221Z,84.90
2023-04-18T05:35:15.688Z,85.50
2023-04-18T05:38:38.002Z,85.50
2023-04-18T05:42:00.785Z,85.70
2023-04-18T05:45:23.050Z,86.00
2023-04-18T05:48:45.606Z,85.80
2023-04-18T05:52:07.863Z,85.70
2023-04-18T05:55:30.108Z,85.70
2023-04-18T05:58:52.346Z,85.80
2023-04-18T06:02:14.828Z,85.80
2023-04-18T06:05:37.350Z,85.60
2023-04-18T06:08:59.698Z,85.70
2023-04-18T06:12:21.884Z,85.60
2023-04-18T06:15:44.207Z,85.60
2023-04-18T06:19:06.399Z,85.40
2023-04-18T06:22:28.624Z,85.50
2023-04-18T06:25:51.239Z,85.70
2023-04-18T06:29:13.505Z,78.80
2023-04-18T06:32:35.880Z,79.20
2023-04-18T06:35:58.545Z,81.00
2023-04-18T06:39:21.218Z,82.10
2023-04-18T06:42:43.836Z,82.40
2023-04-18T06:46:06.519Z,83.10
2023-04-18T06:49:28.867Z,83.50
2023-04-18T06:52:51.146Z,83.70
2023-04-18T06:56:13.666Z,83.90
2023-04-18T06:59:37.356Z,84.10
2023-04-18T07:02:59.817Z,85.70
2023-04-18T07:06:22.157Z,85.70
2023-04-18T07:09:44.420Z,85.80
2023-04-18T07:13:06.854Z,86.10
2023-04-18T07:16:29.352Z,85.30
2023-04-18T07:19:51.679Z,84.30
2023-04-18T07:23:13.986Z,84.20
2023-04-18T07:26:37.243Z,83.20
2023-04-18T07:29:59.521Z,84.10
2023-04-18T07:33:22.009Z,84.00
2023-04-18T07:36:44.297Z,83.50
2023-04-18T07:40:07.242Z,84.80
2023-04-18T07:43:29.953Z,84.10
2023-04-18T07:46:52.354Z,83.70
2023-04-18T07:50:14.694Z,84.40
2023-04-18T07:53:37.332Z,84.00
2023-04-18T07:56:59.651Z,83.80
2023-04-18T08:00:21.981Z,83.50
2023-04-18T08:03:44.989Z,83.30
2023-04-18T08:07:07.500Z,83.00
2023-04-18T08:10:29.933Z,83.50
2023-04-18T08:13:53.740Z,83.30
2023-04-18T08:17:16.376Z,83.00
2023-04-18T08:20:38.625Z,81.80
2023-04-18T08:24:00.965Z,81.80
2023-04-18T08:27:23.244Z,82.00
2023-04-18T08:30:48.882Z,84.30
2023-04-18T08:34:11.230Z,83.00
2023-04-18T08:37:35.448Z,83.00
2023-04-18T08:40:57.662Z,82.90
2023-04-18T08:44:19.960Z,82.70
2023-04-18T08:47:42.474Z,81.10
2023-04-18T08:51:05.325Z,81.60
2023-04-18T08:54:30.358Z,82.60
2023-04-18T08:57:55.039Z,82.20
2023-04-18T09:01:17.810Z,82.40
2023-04-18T09:04:45.387Z,83.10
2023-04-18T09:08:24.036Z,83.10
2023-04-18T09:11:46.309Z,83.40
2023-04-18T09:15:17.234Z,83.30
2023-04-18T09:18:41.030Z,83.30
2023-04-18T09:22:04.773Z,83.40
2023-04-18T09:25:30.176Z,84.40
2023-04-18T09:28:53.913Z,84.90
2023-04-18T09:32:25.162Z,82.30
2023-04-18T09:35:47.510Z,81.90
2023-04-18T09:39:10.064Z,86.60
2023-04-18T09:42:37.059Z,84.70
2023-04-18T09:46:01.087Z,84.20
2023-04-18T09:49:23.926Z,83.00
2023-04-18T09:52:46.957Z,83.10
2023-04-18T09:56:19.804Z,82.30
2023-04-18T09:59:47.764Z,82.00
2023-04-18T10:03:13.504Z,82.00
2023-04-18T10:06:42.017Z,82.00
2023-04-18T10:10:04.626Z,82.00
2023-04-18T10:13:29.511Z,81.80
2023-04-18T10:16:51.909Z,81.80
2023-04-18T10:20:20.413Z,81.90
2023-04-18T10:23:42.662Z,81.40
2023-04-18T10:27:04.922Z,80.40
2023-04-18T10:30:47.572Z,79.30
2023-04-18T10:34:17.477Z,81.70
2023-04-18T10:37:52.258Z,81.50
2023-04-18T10:41:21.620Z,81.70
2023-04-18T10:44:43.937Z,81.00
2023-04-18T10:48:27.639Z,81.20
2023-04-18T10:51:53.958Z,81.40
2023-04-18T10:55:25.733Z,81.40
2023-04-18T10:58:53.163Z,81.20
2023-04-18T11:02:32.705Z,80.80
2023-04-18T11:06:01.950Z,80.50
2023-04-18T11:09:25.020Z,80.60
2023-04-18T11:12:47.829Z,81.40
2023-04-18T11:16:25.214Z,81.70
2023-04-18T11:19:47.767Z,81.80
2023-04-18T11:23:25.026Z,81.70
2023-04-18T11:26:47.359Z,81.50
2023-04-18T11:30:10.646Z,81.20
2023-04-18T11:33:32.883Z,80.50
2023-04-18T11:36:55.149Z,80.60
2023-04-18T11:40:17.620Z,79.50
2023-04-18T11:43:43.454Z,79.80
2023-04-18T11:47:27.048Z,74.70
2023-04-18T11:50:49.756Z,70.00
2023-04-18T11:54:41.161Z,71.10
2023-04-18T11:58:04.209Z,70.30
2023-04-18T12:01:27.188Z,69.40
2023-04-18T12:04:53.923Z,69.40
2023-04-18T12:08:20.682Z,69.90
2023-04-18T12:11:43.077Z,69.40
2023-04-18T12:15:13.844Z,69.20
2023-04-18T12:18:36.230Z,69.90
2023-04-18T12:22:05.102Z,72.80
2023-04-18T12:25:27.834Z,74.70
2023-04-18T12:28:52.808Z,76.00
2023-04-18T12:32:16.935Z,75.70
2023-04-18T12:35:39.201Z,75.70
2023-04-18T12:39:01.783Z,76.00
2023-04-18T12:42:24.007Z,75.90
2023-04-18T12:45:47.214Z,75.90
2023-04-18T12:49:09.460Z,76.10
2023-04-18T12:52:31.776Z,76.20
2023-04-18T12:55:54.035Z,76.20
2023-04-18T12:59:17.183Z,76.40
2023-04-18T13:02:42.160Z,76.50
2023-04-18T13:06:06.064Z,76.70
2023-04-18T13:09:28.450Z,76.90
2023-04-18T13:12:52.034Z,76.90
2023-04-18T13:16:14.332Z,76.90
2023-04-18T13:19:37.115Z,77.00
2023-04-18T13:22:59.338Z,77.10
2023-04-18T13:26:21.570Z,77.30
2023-04-18T13:29:45.631Z,77.40
2023-04-18T13:33:07.960Z,77.60
2023-04-18T13:36:31.659Z,77.70
2023-04-18T13:39:54.318Z,77.60
2023-04-18T13:43:16.567Z,77.50
2023-04-18T13:46:38.971Z,77.60
2023-04-18T13:50:01.173Z,77.70
2023-04-18T13:53:23.562Z,78.00
2023-04-18T13:56:45.935Z,77.90
2023-04-18T14:00:09.308Z,78.20
2023-04-18T14:03:38.801Z,77.90
2023-04-18T14:07:03.477Z,77.90
2023-04-18T14:10:25.834Z,77.90
2023-04-18T14:13:48.097Z,78.20
2023-04-18T14:17:10.303Z,78.20
2023-04-18T14:20:34.740Z,78.30
2023-04-18T14:23:57.212Z,78.40
2023-04-18T14:27:19.600Z,78.40
2023-04-18T14:30:41.795Z,78.70
2023-04-18T14:34:04.012Z,78.60
2023-04-18T14:37:26.436Z,78.50
2023-04-18T14:40:48.672Z,78.80
2023-04-18T14:44:11.002Z,78.70
2023-04-18T14:47:34.680Z,78.90
2023-04-18T14:50:58.574Z,78.90
2023-04-18T14:54:21.031Z,79.20
2023-04-18T14:57:43.256Z,78.90
2023-04-18T15:01:05.769Z,78.70
2023-04-18T15:04:28.294Z,78.80
2023-04-18T15:07:51.950Z,78.90
2023-04-18T15:11:14.379Z,79.80
2023-04-18T15:14:36.649Z,79.40
2023-04-18T15:17:58.906Z,79.20
2023-04-18T15:21:21.213Z,78.50
2023-04-18T15:24:43.514Z,80.20
2023-04-18T15:28:06.228Z,79.40
2023-04-18T15:31:28.428Z,79.30
2023-04-18T15:34:50.774Z,79.20
2023-04-18T15:38:13.516Z,79.30
2023-04-18T15:41:37.033Z,79.20
2023-04-18T15:44:59.204Z,79.40
2023-04-18T15:48:21.505Z,79.30
2023-04-18T15:51:44.111Z,79.40
2023-04-18T15:55:07.386Z,79.30
2023-04-18T15:58:30.313Z,80.00
2023-04-18T16:01:52.685Z,79.70
2023-04-18T16:05:15.519Z,79.50
2023-04-18T16:08:38.108Z,79.80
2023-04-18T16:12:01.607Z,79.70
2023-04-18T16:15:23.879Z,79.90
2023-04-18T16:18:46.228Z,80.20
2023-04-18T16:22:08.491Z,80.70
2023-04-18T16:25:30.999Z,80.40
2023-04-18T16:28:53.266Z,80.00
2023-04-18T16:32:15.682Z,79.70
2023-04-18T16:35:38.634Z,79.40
2023-04-18T16:39:00.980Z,79.70
2023-04-18T16:42:23.330Z,79.70
2023-04-18T16:45:45.728Z,79.50
2023-04-18T16:49:08.111Z,79.80
2023-04-18T16:52:31.315Z,80.40
2023-04-18T16:55:54.538Z,80.70
2023-04-18T16:59:16.969Z,81.20
2023-04-18T17:02:42.874Z,80.20
2023-04-18T17:06:05.827Z,80.40
2023-04-18T17:09:28.150Z,80.30
2023-04-18T17:12:51.040Z,80.40
2023-04-18T17:16:13.431Z,80.00
2023-04-18T17:19:35.924Z,79.20
2023-04-18T17:22:58.160Z,79.50
2023-04-18T17:26:20.834Z,79.60
2023-04-18T17:29:43.070Z,79.50
2023-04-18T17:33:05.290Z,79.60
2023-04-18T17:36:27.820Z,79.70
2023-04-18T17:39:50.039Z,79.70
2023-04-18T17:43:12.611Z,80.00
2023-04-18T17:46:35.088Z,79.60
2023-04-18T17:49:57.441Z,79.60
2023-04-18T17:53:19.733Z,79.80
2023-04-18T17:56:41.995Z,79.70
2023-04-18T18:00:10.174Z,80.20
2023-04-18T18:03:34.830Z,80.40
2023-04-18T18:06:57.895Z,80.80
2023-04-18T18:10:20.501Z,80.70
2023-04-18T18:13:43.105Z,80.30
2023-04-18T18:17:05.872Z,80.80
2023-04-18T18:20:28.405Z,81.00
2023-04-18T18:23:50.637Z,81.40
2023-04-18T18:27:12.870Z,82.00
2023-04-18T18:30:37.386Z,82.90
2023-04-18T18:33:59.586Z,83.70
2023-04-18T18:37:23.321Z,83.90
2023-04-18T18:40:46.011Z,83.90
2023-04-18T18:44:08.280Z,83.60
2023-04-18T18:47:30.720Z,84.20
2023-04-18T18:50:53.254Z,83.40
2023-04-18T18:54:15.556Z,84.10
2023-04-18T18:57:38.033Z,84.20
2023-04-18T19:01:02.377Z,84.10
2023-04-18T19:04:24.846Z,83.60
2023-04-18T19:07:47.338Z,83.60
2023-04-18T19:11:10.354Z,84.70
2023-04-18T19:14:32.941Z,85.10
2023-04-18T19:17:55.932Z,84.10
2023-04-18T19:21:20.136Z,83.90
2023-04-18T19:24:42.497Z,83.60
2023-04-18T19:28:05.842Z,83.90
2023-04-18T19:31:28.164Z,83.40
2023-04-18T19:34:51.432Z,83.30
2023-04-18T19:38:13.642Z,85.80
2023-04-18T19:41:35.821Z,86.50
2023-04-18T19:44:59.056Z,85.00
2023-04-18T19:48:21.370Z,84.40
2023-04-18T19:51:43.697Z,82.90
2023-04-18T19:55:06.554Z,83.80
2023-04-18T19:58:46.232Z,82.80
2023-04-18T20:02:08.469Z,84.20
2023-04-18T20:05:31.139Z,84.90
2023-04-18T20:08:56.537Z,87.40
2023-04-18T20:12:18.959Z,87.40
2023-04-18T20:15:41.938Z,87.70
2023-04-18T20:19:05.665Z,86.60
2023-04-18T20:22:28.047Z,86.30
2023-04-18T20:25:50.413Z,85.40
2023-04-18T20:29:12.876Z,84.90
2023-04-18T20:32:35.520Z,84.90
2023-04-18T20:35:58.916Z,85.40
2023-04-18T20:39:21.190Z,86.70
2023-04-18T20:42:43.457Z,85.20
2023-04-18T20:46:06.966Z,84.50
2023-04-18T20:49:29.831Z,84.60
2023-04-18T20:52:52.058Z,86.40
2023-04-18T20:56:14.262Z,86.50
2023-04-18T20:59:36.628Z,81.30
2023-04-18T21:02:59.004Z,81.50
2023-04-18T21:06:22.115Z,83.20
2023-04-18T21:09:44.389Z,83.70
2023-04-18T21:13:06.739Z,83.90
2023-04-18T21:16:29.003Z,83.90
2023-04-18T21:19:51.469Z,83.70
2023-04-18T21:23:13.668Z,84.10
2023-04-18T21:26:35.876Z,84.40
2023-04-18T21:29:58.121Z,84.40
2023-04-18T21:33:20.403Z,84.30
2023-04-18T21:36:42.583Z,84.30
2023-04-18T21:40:05.716Z,84.10
2023-04-18T21:43:27.946Z,84.00
2023-04-18T21:46:50.193Z,84.30
2023-04-18T21:50:12.537Z,84.10
2023-04-18T21:53:35.515Z,84.20
2023-04-18T21:56:58.270Z,84.20
2023-04-18T22:00:20.647Z,84.10
2023-04-18T22:03:43.155Z,84.10
2023-04-18T22:07:05.948Z,84.10
2023-04-18T22:10:28.162Z,84.00
2023-04-18T22:13:54.204Z,83.90
2023-04-18T22:17:16.503Z,83.90
2023-04-18T22:20:38.963Z,83.80
2023-04-18T22:24:01.296Z,83.70
2023-04-18T22:27:23.650Z,83.40
2023-04-18T22:30:46.012Z,83.20
2023-04-18T22:34:08.216Z,83.10
2023-04-18T22:37:30.429Z,82.90
2023-04-18T22:40:52.813Z,82.80
2023-04-18T22:44:15.585Z,82.70
2023-04-18T22:47:38.125Z,82.70
2023-04-18T22:51:01.782Z,82.60
2023-04-18T22:54:24.081Z,82.60
2023-04-18T22:57:46.277Z,82.60
2023-04-18T23:01:08.610Z,82.60
2023-04-18T23:04:32.869Z,82.60
2023-04-18T23:07:56.894Z,82.60
2023-04-18T23:11:19.997Z,82.50
2023-04-18T23:14:42.208Z,82.60
2023-04-18T23:18:04.635Z,82.40
2023-04-18T23:21:27.859Z,82.40
2023-04-18T23:24:50.184Z,82.40
2023-04-18T23:28:13.611Z,82.40
2023-04-18T23:31:36.057Z,82.40
2023-04-18T23:34:58.404Z,82.30
2023-04-18T23:38:20.580Z,82.40
2023-04-18T23:41:42.838Z,82.10
2023-04-18T23:45:05.985Z,82.10
2023-04-18T23:48:28.342Z,82.10
2023-04-18T23:51:50.687Z,82.00
2023-04-18T23:55:12.941Z,82.10
2023-04-18T23:58:35.672Z,82.00
